Lamont, Michigan
Current Conditions -  °F | °C
As of 1:53 PM on Monday 20 Oct 2014 (Local Time) from KGRR Reporting Station
Scattered Clouds Scattered Clouds  
Wind Chill: 61°   Ceiling: Unl
Heat Index: 61°   Visibility: 10mi
Dew Point: 50°   Wind: 8mph
Humidity: 67%   Direction: 270°W
Pressure: 29.79"   Gusts: NA
Location:  43.01°N, 85.91°W
Report Text: KGRR 201753Z 27007KT 10SM SCT020 SCT150 16/10 A2979 RMK AO2 SLP089 T01610100 10161 20083 58008
Loading
Personal Weather Stations






























Interactive Weather Map
Tropical Storm Tracking
New forecast layout! Learn more

10-Day Weather Forecast

Advertisements
Track Severe Weather on mobile